sensor_id;sensor_type;location;lat;lon;timestamp;temperature;humidity
21246;DHT22;10781;50.928;4.440;2023-05-10T00:00:39;14.10;99.90
21246;DHT22;10781;50.928;4.440;2023-05-10T00:03:05;14.10;99.90
21246;DHT22;10781;50.928;4.440;2023-05-10T00:05:31;14.20;99.90
21246;DHT22;10781;50.928;4.440;2023-05-10T00:07:57;14.20;99.90
21246;DHT22;10781;50.928;4.440;2023-05-10T00:10:22;14.30;99.90
21246;DHT22;10781;50.928;4.440;2023-05-10T00:12:48;14.30;99.90
21246;DHT22;10781;50.928;4.440;2023-05-10T00:15:14;14.50;99.90
21246;DHT22;10781;50.928;4.440;2023-05-10T00:17:39;14.50;99.90
21246;DHT22;10781;50.928;4.440;2023-05-10T00:20:06;14.50;99.90
21246;DHT22;10781;50.928;4.440;2023-05-10T00:22:32;14.40;99.90
21246;DHT22;10781;50.928;4.440;2023-05-10T00:24:58;14.60;99.90
21246;DHT22;10781;50.928;4.440;2023-05-10T00:27:23;14.80;99.90
21246;DHT22;10781;50.928;4.440;2023-05-10T00:29:49;14.70;99.90
21246;DHT22;10781;50.928;4.440;2023-05-10T00:32:15;14.70;99.90
21246;DHT22;10781;50.928;4.440;2023-05-10T00:34:41;14.80;99.90
21246;DHT22;10781;50.928;4.440;2023-05-10T00:37:07;14.90;99.90
21246;DHT22;10781;50.928;4.440;2023-05-10T00:39:32;14.80;99.90
21246;DHT22;10781;50.928;4.440;2023-05-10T00:41:58;14.80;99.90
21246;DHT22;10781;50.928;4.440;2023-05-10T00:44:25;14.90;99.90
21246;DHT22;10781;50.928;4.440;2023-05-10T00:46:51;14.90;99.90
21246;DHT22;10781;50.928;4.440;2023-05-10T00:49:17;14.90;99.90
21246;DHT22;10781;50.928;4.440;2023-05-10T00:51:43;15.00;99.90
21246;DHT22;10781;50.928;4.440;2023-05-10T00:54:14;14.90;99.90
21246;DHT22;10781;50.928;4.440;2023-05-10T00:56:40;15.00;99.90
21246;DHT22;10781;50.928;4.440;2023-05-10T00:59:10;14.90;99.90
21246;DHT22;10781;50.928;4.440;2023-05-10T01:01:37;14.80;99.90
21246;DHT22;10781;50.928;4.440;2023-05-10T01:04:03;14.90;99.90
21246;DHT22;10781;50.928;4.440;2023-05-10T01:06:29;14.80;99.90
21246;DHT22;10781;50.928;4.440;2023-05-10T01:08:55;14.80;99.90
21246;DHT22;10781;50.928;4.440;2023-05-10T01:11:21;14.80;99.90
21246;DHT22;10781;50.928;4.440;2023-05-10T01:13:52;14.80;99.90
21246;DHT22;10781;50.928;4.440;2023-05-10T01:16:20;14.90;99.90
21246;DHT22;10781;50.928;4.440;2023-05-10T01:18:46;14.80;99.90
21246;DHT22;10781;50.928;4.440;2023-05-10T01:35:34;14.70;99.90
21246;DHT22;10781;50.928;4.440;2023-05-10T01:43:30;14.40;99.90
21246;DHT22;10781;50.928;4.440;2023-05-10T01:46:05;14.30;99.90
21246;DHT22;10781;50.928;4.440;2023-05-10T01:48:47;14.40;99.90
21246;DHT22;10781;50.928;4.440;2023-05-10T01:51:22;14.40;99.90
21246;DHT22;10781;50.928;4.440;2023-05-10T01:53:48;14.30;99.90
21246;DHT22;10781;50.928;4.440;2023-05-10T01:56:17;14.40;99.90
21246;DHT22;10781;50.928;4.440;2023-05-10T01:58:47;14.50;99.90
21246;DHT22;10781;50.928;4.440;2023-05-10T02:01:14;14.30;99.90
21246;DHT22;10781;50.928;4.440;2023-05-10T02:03:41;14.20;99.90
21246;DHT22;10781;50.928;4.440;2023-05-10T02:06:09;14.20;99.90
21246;DHT22;10781;50.928;4.440;2023-05-10T02:08:36;14.20;99.90
21246;DHT22;10781;50.928;4.440;2023-05-10T02:11:03;14.30;99.90
21246;DHT22;10781;50.928;4.440;2023-05-10T02:13:31;14.40;99.90
21246;DHT22;10781;50.928;4.440;2023-05-10T02:15:59;14.60;99.90
21246;DHT22;10781;50.928;4.440;2023-05-10T02:18:26;14.70;99.90
21246;DHT22;10781;50.928;4.440;2023-05-10T02:20:53;14.60;99.90
21246;DHT22;10781;50.928;4.440;2023-05-10T02:23:20;14.50;99.90
21246;DHT22;10781;50.928;4.440;2023-05-10T02:25:48;14.50;99.90
21246;DHT22;10781;50.928;4.440;2023-05-10T02:28:15;14.40;99.90
21246;DHT22;10781;50.928;4.440;2023-05-10T02:30:43;14.30;99.90
21246;DHT22;10781;50.928;4.440;2023-05-10T02:33:09;14.40;99.90
21246;DHT22;10781;50.928;4.440;2023-05-10T02:35:36;14.50;99.90
21246;DHT22;10781;50.928;4.440;2023-05-10T02:38:04;14.60;99.90
21246;DHT22;10781;50.928;4.440;2023-05-10T02:40:30;14.60;99.90
21246;DHT22;10781;50.928;4.440;2023-05-10T02:42:59;14.70;99.90
21246;DHT22;10781;50.928;4.440;2023-05-10T02:45:29;14.60;99.90
21246;DHT22;10781;50.928;4.440;2023-05-10T02:47:56;14.60;99.90
21246;DHT22;10781;50.928;4.440;2023-05-10T02:50:22;14.40;99.90
21246;DHT22;10781;50.928;4.440;2023-05-10T02:52:51;14.40;99.90
21246;DHT22;10781;50.928;4.440;2023-05-10T02:55:21;14.40;99.90
21246;DHT22;10781;50.928;4.440;2023-05-10T02:57:59;14.40;99.90
21246;DHT22;10781;50.928;4.440;2023-05-10T03:00:25;14.50;99.90
21246;DHT22;10781;50.928;4.440;2023-05-10T03:02:51;14.70;99.90
21246;DHT22;10781;50.928;4.440;2023-05-10T03:05:17;14.50;99.90
21246;DHT22;10781;50.928;4.440;2023-05-10T03:07:44;14.70;99.90
21246;DHT22;10781;50.928;4.440;2023-05-10T03:10:11;14.60;99.90
21246;DHT22;10781;50.928;4.440;2023-05-10T03:13:19;14.60;99.90
21246;DHT22;10781;50.928;4.440;2023-05-10T03:16:03;14.60;99.90
21246;DHT22;10781;50.928;4.440;2023-05-10T03:19:06;14.30;99.90
21246;DHT22;10781;50.928;4.440;2023-05-10T03:21:35;14.30;99.90
21246;DHT22;10781;50.928;4.440;2023-05-10T03:24:06;14.30;99.90
21246;DHT22;10781;50.928;4.440;2023-05-10T03:26:33;14.30;99.90
21246;DHT22;10781;50.928;4.440;2023-05-10T03:28:59;14.30;99.90
21246;DHT22;10781;50.928;4.440;2023-05-10T03:31:25;14.30;99.90
21246;DHT22;10781;50.928;4.440;2023-05-10T03:33:52;14.30;99.90
21246;DHT22;10781;50.928;4.440;2023-05-10T03:36:18;14.30;99.90
21246;DHT22;10781;50.928;4.440;2023-05-10T03:38:44;14.30;99.90
21246;DHT22;10781;50.928;4.440;2023-05-10T03:41:10;14.30;99.90
21246;DHT22;10781;50.928;4.440;2023-05-10T03:43:36;14.20;99.90
21246;DHT22;10781;50.928;4.440;2023-05-10T03:46:05;14.20;99.90
21246;DHT22;10781;50.928;4.440;2023-05-10T03:48:32;14.20;99.90
21246;DHT22;10781;50.928;4.440;2023-05-10T03:50:58;14.20;99.90
21246;DHT22;10781;50.928;4.440;2023-05-10T03:53:24;14.00;99.90
21246;DHT22;10781;50.928;4.440;2023-05-10T03:55:50;13.80;99.90
21246;DHT22;10781;50.928;4.440;2023-05-10T03:58:15;13.90;99.90
21246;DHT22;10781;50.928;4.440;2023-05-10T04:00:41;14.00;99.90
21246;DHT22;10781;50.928;4.440;2023-05-10T04:03:10;13.90;99.90
21246;DHT22;10781;50.928;4.440;2023-05-10T04:05:36;14.10;99.90
21246;DHT22;10781;50.928;4.440;2023-05-10T04:08:02;14.30;99.90
21246;DHT22;10781;50.928;4.440;2023-05-10T04:10:28;14.30;99.90
21246;DHT22;10781;50.928;4.440;2023-05-10T04:12:54;14.30;99.90
21246;DHT22;10781;50.928;4.440;2023-05-10T04:15:20;14.20;99.90
21246;DHT22;10781;50.928;4.440;2023-05-10T04:17:46;14.30;99.90
21246;DHT22;10781;50.928;4.440;2023-05-10T04:20:12;14.40;99.90
21246;DHT22;10781;50.928;4.440;2023-05-10T04:22:38;14.30;99.90
21246;DHT22;10781;50.928;4.440;2023-05-10T04:25:04;14.40;99.90
21246;DHT22;10781;50.928;4.440;2023-05-10T04:27:30;14.30;99.90
21246;DHT22;10781;50.928;4.440;2023-05-10T04:29:56;14.30;99.90
21246;DHT22;10781;50.928;4.440;2023-05-10T04:32:22;14.40;99.90
21246;DHT22;10781;50.928;4.440;2023-05-10T04:34:48;14.40;99.90
21246;DHT22;10781;50.928;4.440;2023-05-10T04:37:14;14.50;99.90
21246;DHT22;10781;50.928;4.440;2023-05-10T04:39:39;14.50;99.90
21246;DHT22;10781;50.928;4.440;2023-05-10T04:42:05;14.50;99.90
21246;DHT22;10781;50.928;4.440;2023-05-10T04:44:31;14.40;99.90
21246;DHT22;10781;50.928;4.440;2023-05-10T04:46:57;14.50;99.90
21246;DHT22;10781;50.928;4.440;2023-05-10T04:49:23;14.40;99.90
21246;DHT22;10781;50.928;4.440;2023-05-10T04:51:49;14.40;99.90
21246;DHT22;10781;50.928;4.440;2023-05-10T04:54:14;14.50;99.90
21246;DHT22;10781;50.928;4.440;2023-05-10T04:56:40;14.50;99.90
21246;DHT22;10781;50.928;4.440;2023-05-10T04:59:06;14.50;99.90
21246;DHT22;10781;50.928;4.440;2023-05-10T05:01:32;14.50;99.90
21246;DHT22;10781;50.928;4.440;2023-05-10T05:03:58;14.40;99.90
21246;DHT22;10781;50.928;4.440;2023-05-10T05:06:24;14.40;99.90
21246;DHT22;10781;50.928;4.440;2023-05-10T05:08:50;14.40;99.90
21246;DHT22;10781;50.928;4.440;2023-05-10T05:11:17;14.50;99.90
21246;DHT22;10781;50.928;4.440;2023-05-10T05:13:43;14.60;99.90
21246;DHT22;10781;50.928;4.440;2023-05-10T05:16:09;14.70;99.90
21246;DHT22;10781;50.928;4.440;2023-05-10T05:18:36;14.80;99.90
21246;DHT22;10781;50.928;4.440;2023-05-10T05:21:01;14.80;99.90
21246;DHT22;10781;50.928;4.440;2023-05-10T05:23:27;14.80;99.90
21246;DHT22;10781;50.928;4.440;2023-05-10T05:25:53;14.80;99.90
21246;DHT22;10781;50.928;4.440;2023-05-10T05:28:20;14.80;99.90
21246;DHT22;10781;50.928;4.440;2023-05-10T05:30:46;14.80;99.90
21246;DHT22;10781;50.928;4.440;2023-05-10T05:33:13;14.90;99.90
21246;DHT22;10781;50.928;4.440;2023-05-10T05:35:41;14.80;99.90
21246;DHT22;10781;50.928;4.440;2023-05-10T05:38:08;14.80;99.90
21246;DHT22;10781;50.928;4.440;2023-05-10T05:40:33;14.80;99.90
21246;DHT22;10781;50.928;4.440;2023-05-10T05:42:59;15.00;99.90
21246;DHT22;10781;50.928;4.440;2023-05-10T05:45:25;14.90;99.90
21246;DHT22;10781;50.928;4.440;2023-05-10T05:47:50;15.00;99.90
21246;DHT22;10781;50.928;4.440;2023-05-10T05:50:16;15.00;99.90
21246;DHT22;10781;50.928;4.440;2023-05-10T05:52:42;14.90;99.90
21246;DHT22;10781;50.928;4.440;2023-05-10T05:55:08;15.00;99.90
21246;DHT22;10781;50.928;4.440;2023-05-10T05:57:34;15.00;99.90
21246;DHT22;10781;50.928;4.440;2023-05-10T05:59:59;15.10;99.90
21246;DHT22;10781;50.928;4.440;2023-05-10T06:02:25;14.90;99.90
21246;DHT22;10781;50.928;4.440;2023-05-10T06:04:51;14.90;99.90
21246;DHT22;10781;50.928;4.440;2023-05-10T06:07:16;15.00;99.90
21246;DHT22;10781;50.928;4.440;2023-05-10T06:09:42;14.90;99.90
21246;DHT22;10781;50.928;4.440;2023-05-10T06:12:08;15.10;99.90
21246;DHT22;10781;50.928;4.440;2023-05-10T06:14:33;15.30;99.90
21246;DHT22;10781;50.928;4.440;2023-05-10T06:16:59;15.60;99.90
21246;DHT22;10781;50.928;4.440;2023-05-10T06:19:25;15.60;99.90
21246;DHT22;10781;50.928;4.440;2023-05-10T06:21:51;15.70;99.90
21246;DHT22;10781;50.928;4.440;2023-05-10T06:24:17;15.90;99.90
21246;DHT22;10781;50.928;4.440;2023-05-10T06:26:43;15.80;99.90
21246;DHT22;10781;50.928;4.440;2023-05-10T06:29:08;15.90;99.90
21246;DHT22;10781;50.928;4.440;2023-05-10T06:31:34;16.20;99.90
21246;DHT22;10781;50.928;4.440;2023-05-10T06:34:00;16.50;99.90
21246;DHT22;10781;50.928;4.440;2023-05-10T06:36:25;16.70;99.90
21246;DHT22;10781;50.928;4.440;2023-05-10T06:38:52;16.60;99.90
21246;DHT22;10781;50.928;4.440;2023-05-10T06:41:18;16.70;99.90
21246;DHT22;10781;50.928;4.440;2023-05-10T06:43:44;16.80;99.90
21246;DHT22;10781;50.928;4.440;2023-05-10T06:46:10;16.90;99.90
21246;DHT22;10781;50.928;4.440;2023-05-10T06:48:35;16.70;99.90
21246;DHT22;10781;50.928;4.440;2023-05-10T06:51:01;16.70;99.90
21246;DHT22;10781;50.928;4.440;2023-05-10T06:53:27;16.80;99.90
21246;DHT22;10781;50.928;4.440;2023-05-10T06:55:53;16.90;99.90
21246;DHT22;10781;50.928;4.440;2023-05-10T06:58:18;16.80;99.90
21246;DHT22;10781;50.928;4.440;2023-05-10T07:00:44;16.70;99.90
21246;DHT22;10781;50.928;4.440;2023-05-10T07:03:10;16.40;99.90
21246;DHT22;10781;50.928;4.440;2023-05-10T07:05:36;16.00;99.90
21246;DHT22;10781;50.928;4.440;2023-05-10T07:08:02;16.00;99.90
21246;DHT22;10781;50.928;4.440;2023-05-10T07:10:27;16.20;99.90
21246;DHT22;10781;50.928;4.440;2023-05-10T07:12:53;16.50;99.90
21246;DHT22;10781;50.928;4.440;2023-05-10T07:15:19;16.30;99.90
21246;DHT22;10781;50.928;4.440;2023-05-10T07:17:45;16.20;99.90
21246;DHT22;10781;50.928;4.440;2023-05-10T07:20:11;16.20;99.90
21246;DHT22;10781;50.928;4.440;2023-05-10T07:22:37;16.20;99.90
21246;DHT22;10781;50.928;4.440;2023-05-10T07:25:02;15.90;99.90
21246;DHT22;10781;50.928;4.440;2023-05-10T07:27:28;15.90;99.90
21246;DHT22;10781;50.928;4.440;2023-05-10T07:29:54;16.00;99.90
21246;DHT22;10781;50.928;4.440;2023-05-10T07:32:20;15.80;99.90
21246;DHT22;10781;50.928;4.440;2023-05-10T07:34:46;15.50;99.90
21246;DHT22;10781;50.928;4.440;2023-05-10T07:37:12;15.30;99.90
21246;DHT22;10781;50.928;4.440;2023-05-10T07:39:38;15.50;99.90
21246;DHT22;10781;50.928;4.440;2023-05-10T07:42:03;15.60;99.90
21246;DHT22;10781;50.928;4.440;2023-05-10T07:44:29;15.70;99.90
21246;DHT22;10781;50.928;4.440;2023-05-10T07:46:55;15.70;99.90
21246;DHT22;10781;50.928;4.440;2023-05-10T07:49:21;15.80;99.90
21246;DHT22;10781;50.928;4.440;2023-05-10T07:51:47;15.70;99.90
21246;DHT22;10781;50.928;4.440;2023-05-10T07:54:13;15.60;99.90
21246;DHT22;10781;50.928;4.440;2023-05-10T07:56:40;15.80;99.90
21246;DHT22;10781;50.928;4.440;2023-05-10T07:59:15;16.00;99.90
21246;DHT22;10781;50.928;4.440;2023-05-10T08:01:41;15.90;99.90
21246;DHT22;10781;50.928;4.440;2023-05-10T08:04:07;15.70;99.90
21246;DHT22;10781;50.928;4.440;2023-05-10T08:06:32;15.60;99.90
21246;DHT22;10781;50.928;4.440;2023-05-10T08:08:58;15.50;99.90
21246;DHT22;10781;50.928;4.440;2023-05-10T08:11:24;15.70;99.90
21246;DHT22;10781;50.928;4.440;2023-05-10T08:13:50;15.80;99.90
21246;DHT22;10781;50.928;4.440;2023-05-10T08:16:16;15.90;99.90
21246;DHT22;10781;50.928;4.440;2023-05-10T08:18:43;16.10;99.90
21246;DHT22;10781;50.928;4.440;2023-05-10T08:21:10;16.20;99.90
21246;DHT22;10781;50.928;4.440;2023-05-10T08:23:36;16.40;99.90
21246;DHT22;10781;50.928;4.440;2023-05-10T08:26:02;16.60;99.90
21246;DHT22;10781;50.928;4.440;2023-05-10T08:28:28;16.70;99.90
21246;DHT22;10781;50.928;4.440;2023-05-10T08:30:53;16.70;99.90
21246;DHT22;10781;50.928;4.440;2023-05-10T08:33:19;16.60;99.90
21246;DHT22;10781;50.928;4.440;2023-05-10T08:35:45;16.60;99.90
21246;DHT22;10781;50.928;4.440;2023-05-10T08:38:11;16.60;99.90
21246;DHT22;10781;50.928;4.440;2023-05-10T08:40:38;16.70;99.90
21246;DHT22;10781;50.928;4.440;2023-05-10T08:43:07;16.60;99.90
21246;DHT22;10781;50.928;4.440;2023-05-10T08:45:39;16.40;99.90
21246;DHT22;10781;50.928;4.440;2023-05-10T08:48:11;16.20;99.90
21246;DHT22;10781;50.928;4.440;2023-05-10T08:50:40;16.10;99.90
21246;DHT22;10781;50.928;4.440;2023-05-10T08:53:10;16.10;99.90
21246;DHT22;10781;50.928;4.440;2023-05-10T08:55:37;16.10;99.90
21246;DHT22;10781;50.928;4.440;2023-05-10T08:58:04;16.00;99.90
21246;DHT22;10781;50.928;4.440;2023-05-10T09:00:31;16.00;99.90
21246;DHT22;10781;50.928;4.440;2023-05-10T09:02:58;16.10;99.90
21246;DHT22;10781;50.928;4.440;2023-05-10T09:05:24;15.90;99.90
21246;DHT22;10781;50.928;4.440;2023-05-10T09:07:50;16.10;99.90
21246;DHT22;10781;50.928;4.440;2023-05-10T09:10:16;16.30;99.90
21246;DHT22;10781;50.928;4.440;2023-05-10T09:12:43;16.30;99.90
21246;DHT22;10781;50.928;4.440;2023-05-10T09:15:10;16.50;99.90
21246;DHT22;10781;50.928;4.440;2023-05-10T09:17:38;16.60;99.90
21246;DHT22;10781;50.928;4.440;2023-05-10T09:20:05;16.50;99.90
21246;DHT22;10781;50.928;4.440;2023-05-10T09:22:31;16.60;99.90
21246;DHT22;10781;50.928;4.440;2023-05-10T09:25:23;16.30;99.90
21246;DHT22;10781;50.928;4.440;2023-05-10T09:27:49;16.00;99.90
21246;DHT22;10781;50.928;4.440;2023-05-10T09:30:17;16.00;99.90
21246;DHT22;10781;50.928;4.440;2023-05-10T09:32:45;16.10;99.90
21246;DHT22;10781;50.928;4.440;2023-05-10T09:35:12;16.30;99.90
21246;DHT22;10781;50.928;4.440;2023-05-10T09:37:43;16.40;99.90
21246;DHT22;10781;50.928;4.440;2023-05-10T09:40:14;16.60;99.90
21246;DHT22;10781;50.928;4.440;2023-05-10T09:45:16;16.80;99.90
21246;DHT22;10781;50.928;4.440;2023-05-10T09:47:42;16.70;99.90
21246;DHT22;10781;50.928;4.440;2023-05-10T09:50:07;16.60;99.90
21246;DHT22;10781;50.928;4.440;2023-05-10T09:55:24;16.50;99.90
21246;DHT22;10781;50.928;4.440;2023-05-10T09:58:00;16.40;99.90
21246;DHT22;10781;50.928;4.440;2023-05-10T10:00:26;16.30;99.90
21246;DHT22;10781;50.928;4.440;2023-05-10T10:02:57;16.50;99.90
21246;DHT22;10781;50.928;4.440;2023-05-10T10:05:30;16.70;99.90
21246;DHT22;10781;50.928;4.440;2023-05-10T10:07:57;16.90;99.90
21246;DHT22;10781;50.928;4.440;2023-05-10T10:10:25;16.70;99.90
21246;DHT22;10781;50.928;4.440;2023-05-10T10:12:51;16.70;99.90
21246;DHT22;10781;50.928;4.440;2023-05-10T10:15:17;16.70;99.90
21246;DHT22;10781;50.928;4.440;2023-05-10T10:17:43;16.70;99.90
21246;DHT22;10781;50.928;4.440;2023-05-10T10:20:09;16.80;99.90
21246;DHT22;10781;50.928;4.440;2023-05-10T10:22:36;16.80;99.90
21246;DHT22;10781;50.928;4.440;2023-05-10T10:25:03;16.70;99.90
21246;DHT22;10781;50.928;4.440;2023-05-10T10:30:13;16.60;99.90
21246;DHT22;10781;50.928;4.440;2023-05-10T10:32:59;16.40;99.90
21246;DHT22;10781;50.928;4.440;2023-05-10T10:35:28;16.40;99.90
21246;DHT22;10781;50.928;4.440;2023-05-10T10:37:54;16.40;99.90
21246;DHT22;10781;50.928;4.440;2023-05-10T10:40:28;16.50;99.90
21246;DHT22;10781;50.928;4.440;2023-05-10T10:42:55;16.40;99.90
21246;DHT22;10781;50.928;4.440;2023-05-10T10:45:21;16.50;99.90
21246;DHT22;10781;50.928;4.440;2023-05-10T10:47:47;16.50;99.90
21246;DHT22;10781;50.928;4.440;2023-05-10T10:50:13;16.70;99.90
21246;DHT22;10781;50.928;4.440;2023-05-10T10:52:45;16.90;99.90
21246;DHT22;10781;50.928;4.440;2023-05-10T10:55:16;17.10;99.90
21246;DHT22;10781;50.928;4.440;2023-05-10T10:57:54;17.20;99.90
21246;DHT22;10781;50.928;4.440;2023-05-10T11:00:32;17.10;99.90
21246;DHT22;10781;50.928;4.440;2023-05-10T11:03:06;16.90;99.90
21246;DHT22;10781;50.928;4.440;2023-05-10T11:05:48;16.80;99.90
21246;DHT22;10781;50.928;4.440;2023-05-10T11:08:16;16.90;99.90
21246;DHT22;10781;50.928;4.440;2023-05-10T11:13:33;16.90;99.90
21246;DHT22;10781;50.928;4.440;2023-05-10T11:16:22;17.00;99.90
21246;DHT22;10781;50.928;4.440;2023-05-10T11:19:03;17.10;99.90
21246;DHT22;10781;50.928;4.440;2023-05-10T11:21:30;17.30;99.90
21246;DHT22;10781;50.928;4.440;2023-05-10T11:23:57;17.20;99.90
21246;DHT22;10781;50.928;4.440;2023-05-10T11:26:25;16.90;99.90
21246;DHT22;10781;50.928;4.440;2023-05-10T11:28:53;17.00;99.90
21246;DHT22;10781;50.928;4.440;2023-05-10T11:31:23;16.90;99.90
21246;DHT22;10781;50.928;4.440;2023-05-10T11:33:54;16.80;99.90
21246;DHT22;10781;50.928;4.440;2023-05-10T11:36:29;16.80;99.90
21246;DHT22;10781;50.928;4.440;2023-05-10T11:39:00;17.00;99.90
21246;DHT22;10781;50.928;4.440;2023-05-10T11:41:28;17.20;99.90
21246;DHT22;10781;50.928;4.440;2023-05-10T11:43:55;17.40;99.90
21246;DHT22;10781;50.928;4.440;2023-05-10T11:46:26;17.50;99.90
21246;DHT22;10781;50.928;4.440;2023-05-10T11:48:59;17.80;99.90
21246;DHT22;10781;50.928;4.440;2023-05-10T11:51:26;18.00;99.90
21246;DHT22;10781;50.928;4.440;2023-05-10T11:53:54;18.10;99.90
21246;DHT22;10781;50.928;4.440;2023-05-10T11:56:20;18.00;99.90
21246;DHT22;10781;50.928;4.440;2023-05-10T11:58:55;18.10;99.90
21246;DHT22;10781;50.928;4.440;2023-05-10T12:01:22;17.90;99.90
21246;DHT22;10781;50.928;4.440;2023-05-10T12:03:49;17.90;99.90
21246;DHT22;10781;50.928;4.440;2023-05-10T12:06:15;18.20;99.90
21246;DHT22;10781;50.928;4.440;2023-05-10T12:08:46;18.20;99.90
21246;DHT22;10781;50.928;4.440;2023-05-10T12:11:13;18.20;99.90
21246;DHT22;10781;50.928;4.440;2023-05-10T12:13:42;17.90;99.90
21246;DHT22;10781;50.928;4.440;2023-05-10T12:18:43;18.50;99.90
21246;DHT22;10781;50.928;4.440;2023-05-10T12:21:11;18.70;99.90
21246;DHT22;10781;50.928;4.440;2023-05-10T12:23:37;19.00;99.90
21246;DHT22;10781;50.928;4.440;2023-05-10T12:26:04;19.00;99.90
21246;DHT22;10781;50.928;4.440;2023-05-10T12:28:31;18.70;99.90
21246;DHT22;10781;50.928;4.440;2023-05-10T12:30:58;18.90;99.90
21246;DHT22;10781;50.928;4.440;2023-05-10T12:33:24;18.80;99.90
21246;DHT22;10781;50.928;4.440;2023-05-10T12:35:52;18.70;99.90
21246;DHT22;10781;50.928;4.440;2023-05-10T12:38:29;19.00;99.90
21246;DHT22;10781;50.928;4.440;2023-05-10T12:41:07;19.50;99.90
21246;DHT22;10781;50.928;4.440;2023-05-10T12:43:33;19.70;99.90
21246;DHT22;10781;50.928;4.440;2023-05-10T12:46:08;19.60;99.90
21246;DHT22;10781;50.928;4.440;2023-05-10T12:48:35;19.70;99.90
21246;DHT22;10781;50.928;4.440;2023-05-10T12:51:01;20.10;99.90
21246;DHT22;10781;50.928;4.440;2023-05-10T12:53:27;21.00;99.90
21246;DHT22;10781;50.928;4.440;2023-05-10T12:55:53;21.70;99.90
21246;DHT22;10781;50.928;4.440;2023-05-10T12:58:19;22.20;99.90
21246;DHT22;10781;50.928;4.440;2023-05-10T13:00:45;22.60;99.90
21246;DHT22;10781;50.928;4.440;2023-05-10T13:03:11;22.60;99.90
21246;DHT22;10781;50.928;4.440;2023-05-10T13:05:37;21.90;99.90
21246;DHT22;10781;50.928;4.440;2023-05-10T13:08:03;22.10;99.90
21246;DHT22;10781;50.928;4.440;2023-05-10T13:10:30;22.20;99.90
21246;DHT22;10781;50.928;4.440;2023-05-10T13:12:56;21.90;99.90
21246;DHT22;10781;50.928;4.440;2023-05-10T13:15:22;21.50;99.90
21246;DHT22;10781;50.928;4.440;2023-05-10T13:17:48;21.30;99.90
21246;DHT22;10781;50.928;4.440;2023-05-10T13:20:14;21.70;99.90
21246;DHT22;10781;50.928;4.440;2023-05-10T13:22:40;21.70;99.90
21246;DHT22;10781;50.928;4.440;2023-05-10T13:25:06;21.50;99.90
21246;DHT22;10781;50.928;4.440;2023-05-10T13:27:32;22.00;99.90
21246;DHT22;10781;50.928;4.440;2023-05-10T13:29:58;22.30;99.90
21246;DHT22;10781;50.928;4.440;2023-05-10T13:32:25;22.40;99.90
21246;DHT22;10781;50.928;4.440;2023-05-10T13:34:51;22.40;99.90
21246;DHT22;10781;50.928;4.440;2023-05-10T13:37:17;22.00;99.90
21246;DHT22;10781;50.928;4.440;2023-05-10T13:39:43;22.50;99.90
21246;DHT22;10781;50.928;4.440;2023-05-10T13:42:08;22.40;99.90
21246;DHT22;10781;50.928;4.440;2023-05-10T13:44:34;22.50;99.90
21246;DHT22;10781;50.928;4.440;2023-05-10T13:47:01;22.90;99.90
21246;DHT22;10781;50.928;4.440;2023-05-10T13:49:27;22.80;99.90
21246;DHT22;10781;50.928;4.440;2023-05-10T13:51:52;22.70;99.90
21246;DHT22;10781;50.928;4.440;2023-05-10T13:54:18;22.60;99.90
21246;DHT22;10781;50.928;4.440;2023-05-10T13:56:45;22.60;99.90
21246;DHT22;10781;50.928;4.440;2023-05-10T13:59:13;22.20;99.90
21246;DHT22;10781;50.928;4.440;2023-05-10T14:01:42;22.00;99.90
21246;DHT22;10781;50.928;4.440;2023-05-10T14:04:08;22.10;99.90
21246;DHT22;10781;50.928;4.440;2023-05-10T14:06:36;22.10;99.90
21246;DHT22;10781;50.928;4.440;2023-05-10T14:09:02;22.00;99.90
21246;DHT22;10781;50.928;4.440;2023-05-10T14:11:28;21.60;99.90
21246;DHT22;10781;50.928;4.440;2023-05-10T14:13:54;21.40;99.90
21246;DHT22;10781;50.928;4.440;2023-05-10T14:16:20;20.60;99.90
21246;DHT22;10781;50.928;4.440;2023-05-10T14:18:46;20.50;99.90
21246;DHT22;10781;50.928;4.440;2023-05-10T14:21:12;20.40;99.90
21246;DHT22;10781;50.928;4.440;2023-05-10T14:23:38;20.20;99.90
21246;DHT22;10781;50.928;4.440;2023-05-10T14:26:03;20.20;99.90
21246;DHT22;10781;50.928;4.440;2023-05-10T14:28:29;20.20;99.90
21246;DHT22;10781;50.928;4.440;2023-05-10T14:30:55;20.30;99.90
21246;DHT22;10781;50.928;4.440;2023-05-10T14:33:20;20.20;99.90
21246;DHT22;10781;50.928;4.440;2023-05-10T14:35:47;20.00;99.90
21246;DHT22;10781;50.928;4.440;2023-05-10T14:38:13;19.90;99.90
21246;DHT22;10781;50.928;4.440;2023-05-10T14:40:39;19.90;99.90
21246;DHT22;10781;50.928;4.440;2023-05-10T14:43:05;19.70;99.90
21246;DHT22;10781;50.928;4.440;2023-05-10T14:45:31;19.50;99.90
21246;DHT22;10781;50.928;4.440;2023-05-10T14:47:57;19.30;99.90
21246;DHT22;10781;50.928;4.440;2023-05-10T14:50:23;19.20;99.90
21246;DHT22;10781;50.928;4.440;2023-05-10T14:52:49;19.10;99.90
21246;DHT22;10781;50.928;4.440;2023-05-10T14:55:15;19.00;99.90
21246;DHT22;10781;50.928;4.440;2023-05-10T14:57:41;18.90;99.90
21246;DHT22;10781;50.928;4.440;2023-05-10T15:00:07;18.80;99.90
21246;DHT22;10781;50.928;4.440;2023-05-10T15:02:33;18.60;99.90
21246;DHT22;10781;50.928;4.440;2023-05-10T15:04:59;18.20;99.90
21246;DHT22;10781;50.928;4.440;2023-05-10T15:07:24;18.10;99.90
21246;DHT22;10781;50.928;4.440;2023-05-10T15:09:50;18.00;99.90
21246;DHT22;10781;50.928;4.440;2023-05-10T15:12:17;17.90;99.90
21246;DHT22;10781;50.928;4.440;2023-05-10T15:14:43;17.80;99.90
21246;DHT22;10781;50.928;4.440;2023-05-10T15:17:09;17.60;99.90
21246;DHT22;10781;50.928;4.440;2023-05-10T15:19:35;17.60;99.90
21246;DHT22;10781;50.928;4.440;2023-05-10T15:22:01;17.00;99.90
21246;DHT22;10781;50.928;4.440;2023-05-10T15:24:28;16.80;99.90
21246;DHT22;10781;50.928;4.440;2023-05-10T15:26:54;16.70;99.90
21246;DHT22;10781;50.928;4.440;2023-05-10T15:29:20;16.90;99.90
21246;DHT22;10781;50.928;4.440;2023-05-10T15:31:50;16.90;99.90
21246;DHT22;10781;50.928;4.440;2023-05-10T15:34:16;16.80;99.90
21246;DHT22;10781;50.928;4.440;2023-05-10T15:36:43;16.50;99.90
21246;DHT22;10781;50.928;4.440;2023-05-10T15:39:10;16.60;99.90
21246;DHT22;10781;50.928;4.440;2023-05-10T15:41:36;16.60;99.90
21246;DHT22;10781;50.928;4.440;2023-05-10T15:44:02;16.50;99.90
21246;DHT22;10781;50.928;4.440;2023-05-10T15:46:28;16.50;99.90
21246;DHT22;10781;50.928;4.440;2023-05-10T15:48:54;16.40;99.90
21246;DHT22;10781;50.928;4.440;2023-05-10T15:51:21;16.40;99.90
21246;DHT22;10781;50.928;4.440;2023-05-10T15:53:47;16.60;99.90
21246;DHT22;10781;50.928;4.440;2023-05-10T15:56:12;16.50;99.90
21246;DHT22;10781;50.928;4.440;2023-05-10T15:58:39;16.70;99.90
21246;DHT22;10781;50.928;4.440;2023-05-10T16:01:05;16.60;99.90
21246;DHT22;10781;50.928;4.440;2023-05-10T16:03:35;16.70;99.90